Weather at Dodge County Airport

Public forecast

Using degrees Fahrenheit for public forecast. Weather courtesy of forecast.io.

Current aviation weather report (METAR) for Dodge County Airport

Retrieved 2021/06/23 02:35 UTC (10 minutes ago):

KUNU 230235Z AUTO 12003KT 10SM SCT065 BKN075 16/10 A2996 RMK AO2 T01620103

Closest aviation forecast (TAF) to Dodge County Airport

Closest forecast is Waukesha County Airport, 30.8 nm (57.1 km) SE. Retrieved 2021-06-23 00:33 UTC (2 hours ago):

TAF KUES 222330Z 2300/2324 VRB05KT P6SM BKN070 TEMPO 2300/2304 21005KT SCT070 FM230500 17005KT P6SM VCSH BKN070 FM231200 19007KT P6SM VCSH BKN040 TEMPO 2313/2316 5SM -SHRA BKN030 FM231700 21011G22KT P6SM BKN050